Admiral — WCY6529 — position and weather

sailwx.info

Track history (hours):
 
Tides and Currents Weather Stations Pressure Air Temp Water Temp Dewpoint Dewpoint Depression Visibility Wind Speed Wind Dir Waves Ship Positions

Admiral

Owner: CROWLEY MARINE SERVICES INC, SEATTLE, WA. More information available from US FCC via Universal Licensing System and Coast Guard Vessel Documentation Center.

Last reported at 2015-Jan-25 02:18 UTC. Time now 2015-Jan-26 00:24 UTC.
Position N 33°44' W 118°13'.

; draft 5.3 m.

Type: Tug. MMSI: 366755020.

Date/timePositionNaut miles runAvg speedWind from/ knotsBaromVisibWave heightAir tempDewpointWater temp
2015-Jan-25 02:18N 33°44' W 118°13'2 2.9
2015-Jan-25 01:33N 33°46' W 118°14'1 1.1
2015-Jan-25 00:29N 33°45' W 118°13'2 1.9
2015-Jan-24 23:14N 33°45' W 118°16'0 0.2
2015-Jan-24 22:15N 33°45' W 118°16'0 0.0
2015-Jan-24 13:25N 33°46' W 118°16'1 0.3
2015-Jan-24 09:14N 33°44' W 118°17'0 0.0
2015-Jan-24 08:26N 33°44' W 118°17'0 0.0
2015-Jan-24 07:33N 33°44' W 118°17'0 0.0
2015-Jan-24 06:34N 33°44' W 118°17'3 3.5
2015-Jan-24 05:33N 33°45' W 118°13'2 1.6
2015-Jan-24 04:24N 33°43' W 118°11'3 2.9
2015-Jan-24 03:33N 33°41' W 118°11'3 3.3
2015-Jan-24 02:34N 33°44' W 118°12'1 0.6
2015-Jan-24 01:26N 33°45' W 118°12'1 0.9
2015-Jan-24 00:31N 33°45' W 118°13'1 0.6
2015-Jan-23 23:25N 33°46' W 118°13'3 0.5
2015-Jan-23 17:34N 33°44' W 118°17'1 0.7
2015-Jan-23 16:33N 33°44' W 118°16'0 0.0
2015-Jan-23 15:33N 33°44' W 118°16'1 0.7
2015-Jan-23 14:33N 33°44' W 118°17'0 0.0
2015-Jan-23 13:34N 33°44' W 118°17'0 0.0
2015-Jan-23 12:34N 33°44' W 118°17'0 0.0
2015-Jan-23 11:34N 33°44' W 118°17'0 0.0
2015-Jan-23 10:33N 33°44' W 118°17'2 1.8
2015-Jan-23 09:28N 33°43' W 118°15'3 2.5
2015-Jan-23 08:25N 33°44' W 118°12'3 3.7
2015-Jan-23 07:33N 33°43' W 118°16'1 1.5
2015-Jan-23 06:33N 33°44' W 118°17'0 0.0
2015-Jan-23 05:33N 33°44' W 118°17'0 0.0
2015-Jan-23 04:34N 33°44' W 118°17'0 0.1
2015-Jan-23 03:33N 33°44' W 118°17'2 1.4
2015-Jan-23 02:11N 33°46' W 118°15'1 1.2
2015-Jan-23 01:09N 33°45' W 118°16'1 2.3
2015-Jan-23 00:34N 33°44' W 118°15'1 0.9
2015-Jan-22 23:14N 33°44' W 118°17'0 0.0
2015-Jan-22 21:33N 33°44' W 118°17'3 2.7
2015-Jan-22 20:34N 33°42' W 118°16'8 7.9
2015-Jan-22 19:34N 33°44' W 118°25'1010.1
2015-Jan-22 18:31N 33°54' W 118°27'0 0.3
2015-Jan-22 17:34N 33°54' W 118°27'0 0.3
2015-Jan-22 16:33N 33°54' W 118°27'1 0.8
2015-Jan-22 15:33N 33°53' W 118°28'0 0.0
2015-Jan-22 14:33N 33°53' W 118°28'6 6.3
2015-Jan-22 13:33N 33°47' W 118°28'10 8.0
2015-Jan-22 12:15N 33°41' W 118°18'4 5.2
2015-Jan-22 11:33N 33°44' W 118°17'0 0.0
2015-Jan-22 10:34N 33°44' W 118°17'0 0.0
2015-Jan-22 09:33N 33°44' W 118°17'4 3.9
2015-Jan-22 08:33N 33°44' W 118°12'3 3.3
2015-Jan-22 07:33N 33°43' W 118°16'1 1.3
2015-Jan-22 06:33N 33°44' W 118°17'0 0.0
2015-Jan-22 05:34N 33°44' W 118°17'0 0.0
2015-Jan-22 04:33N 33°44' W 118°17'0 0.0
2015-Jan-22 03:33N 33°44' W 118°17'2 2.1
2015-Jan-22 02:33N 33°46' W 118°15'3 2.6
2015-Jan-22 01:22N 33°43' W 118°16'0 0.2
2015-Jan-22 00:09N 33°43' W 118°16'3 4.5
2015-Jan-21 23:33N 33°46' W 118°16'0 0.3
2015-Jan-21 22:50N 33°45' W 118°16'3 2.0
2015-Jan-21 21:33N 33°43' W 118°16'2 0.6
2015-Jan-21 18:33N 33°44' W 118°17'3 0.2
2015-Jan-20 22:27N 33°45' W 118°13'0 0.0
2015-Jan-20 21:32N 33°45' W 118°13'2 1.9
2015-Jan-20 20:34N 33°44' W 118°12'4 1.4
2015-Jan-20 17:34N 33°44' W 118°17'0 0.0
2015-Jan-20 14:25N 33°44' W 118°17'0 0.0
2015-Jan-20 13:17N 33°44' W 118°17'0 0.0
2015-Jan-20 11:08N 33°44' W 118°17'0 0.0
2015-Jan-20 10:15N 33°44' W 118°17'0 0.0
2015-Jan-20 08:28N 33°44' W 118°17'0 0.0
2015-Jan-20 07:28N 33°44' W 118°17'2 1.2
2015-Jan-20 05:31N 33°43' W 118°14'3 3.6
2015-Jan-20 04:33N 33°46' W 118°13'1 0.7
2015-Jan-20 03:33N 33°46' W 118°13'5 4.6
2015-Jan-20 02:30N 33°42' W 118°09'6 6.3
2015-Jan-20 01:33N 33°43' W 118°16'2 1.5
2015-Jan-20 00:33N 33°44' W 118°17'0 0.0
2015-Jan-19 23:26N 33°44' W 118°17'0 0.3
2015-Jan-19 22:34N 33°44' W 118°17'1 1.3
2015-Jan-19 21:34N 33°45' W 118°16'1 1.0
2015-Jan-19 20:33N 33°44' W 118°17'0 0.0
2015-Jan-19 19:26N 33°44' W 118°17'0 0.0
2015-Jan-19 18:10N 33°44' W 118°17'0 0.0
2015-Jan-19 17:29N 33°44' W 118°17'0 0.0
2015-Jan-19 16:33N 33°44' W 118°17'0 0.0
2015-Jan-19 15:33N 33°44' W 118°17'0 0.0
2015-Jan-19 14:34N 33°44' W 118°17'0 0.0
2015-Jan-19 13:33N 33°44' W 118°17'0 0.0
2015-Jan-19 12:33N 33°44' W 118°17'0 0.0
2015-Jan-19 11:33N 33°44' W 118°17'0 0.2
2015-Jan-19 10:33N 33°45' W 118°17'1 0.9
2015-Jan-19 09:33N 33°45' W 118°16'2 2.2
2015-Jan-19 08:34N 33°43' W 118°16'2 1.7
2015-Jan-19 07:33N 33°44' W 118°17'0 0.0
2015-Jan-19 06:33N 33°44' W 118°17'0 0.0
2015-Jan-19 05:34N 33°44' W 118°17'0 0.0
2015-Jan-19 04:28N 33°44' W 118°17'0 0.3
2015-Jan-19 03:33N 33°45' W 118°17'1 0.6
2015-Jan-19 02:34N 33°45' W 118°16'0 0.3
2015-Jan-19 01:33N 33°45' W 118°17'0 0.5
2015-Jan-19 00:34N 33°45' W 118°16'1 0.6
2015-Jan-18 23:33N 33°44' W 118°17'0 0.0
2015-Jan-18 22:33N 33°44' W 118°17'0 0.0
2015-Jan-18 21:33N 33°44' W 118°17'0 0.0
2015-Jan-18 20:33N 33°44' W 118°17'0 0.0
2015-Jan-18 19:33N 33°44' W 118°17'0 0.0
2015-Jan-18 18:34N 33°44' W 118°17'0 0.0
2015-Jan-18 17:21N 33°44' W 118°17'0 0.0
2015-Jan-18 16:32N 33°44' W 118°17'0 0.0
2015-Jan-18 15:26N 33°44' W 118°17'0 0.0
2015-Jan-18 14:26N 33°44' W 118°17'3 3.4
2015-Jan-18 13:33N 33°46' W 118°14'1 1.4
2015-Jan-18 12:33N 33°45' W 118°13'0 0.2
2015-Jan-18 11:33N 33°45' W 118°13'0 0.3
2015-Jan-18 10:33N 33°45' W 118°13'1 1.0
2015-Jan-18 09:34N 33°46' W 118°14'0 0.0
2015-Jan-18 08:33N 33°46' W 118°14'3 3.3
2015-Jan-18 07:33N 33°44' W 118°16'1 0.7
2015-Jan-18 06:34N 33°44' W 118°17'0 0.0
2015-Jan-18 05:34N 33°44' W 118°17'0 0.0
2015-Jan-18 04:34N 33°44' W 118°17'1 1.2
2015-Jan-18 03:33N 33°43' W 118°16'1 0.8
2015-Jan-18 02:33N 33°44' W 118°15'1 0.3
2015-Jan-17 22:29N 33°44' W 118°17'3 3.3
2015-Jan-17 21:32N 33°45' W 118°13'1 1.3
2015-Jan-17 20:32N 33°44' W 118°12'4 4.2
2015-Jan-17 19:34N 33°40' W 118°10'3 3.0
2015-Jan-17 18:33N 33°42' W 118°14'3 2.6
2015-Jan-17 17:33N 33°44' W 118°12'1 1.4
2015-Jan-17 16:31N 33°45' W 118°13'3 1.6
2015-Jan-17 14:32N 33°44' W 118°17'1 1.2
2015-Jan-17 13:33N 33°46' W 118°17'3 3.1
2015-Jan-17 12:33N 33°43' W 118°15'2 2.2
2015-Jan-17 11:34N 33°44' W 118°17'0 0.0
2015-Jan-17 10:34N 33°44' W 118°17'0 0.0
2015-Jan-17 09:34N 33°44' W 118°17'0 0.0
2015-Jan-17 08:34N 33°44' W 118°17'0 0.0
2015-Jan-17 07:34N 33°44' W 118°17'0 0.0
2015-Jan-17 06:34N 33°44' W 118°17'0 0.0
2015-Jan-17 05:33N 33°44' W 118°17'1 0.9
2015-Jan-17 04:33N 33°43' W 118°17'3 3.4
2015-Jan-17 03:34N 33°45' W 118°13'1 0.7
2015-Jan-17 02:34N 33°45' W 118°13'3 3.0
2015-Jan-17 01:34N 33°46' W 118°16'1 1.3
2015-Jan-17 00:34N 33°44' W 118°17'0 0.0
2015-Jan-16 23:33N 33°44' W 118°17'0 0.0
2015-Jan-16 22:33N 33°44' W 118°17'0 0.0
2015-Jan-16 21:09N 33°44' W 118°17'0 0.0
2015-Jan-16 20:28N 33°44' W 118°17'1 1.2
2015-Jan-16 19:34N 33°43' W 118°16'3 3.3
2015-Jan-16 18:33N 33°46' W 118°13'0 0.1
2015-Jan-16 17:33N 33°46' W 118°13'3 2.8
2015-Jan-16 16:29N 33°44' W 118°10'5 5.2
2015-Jan-16 15:34N 33°43' W 118°16'2 1.5
2015-Jan-16 14:34N 33°44' W 118°17'0 0.0
2015-Jan-16 13:33N 33°44' W 118°17'0 0.0
2015-Jan-16 12:33N 33°44' W 118°17'0 0.0
2015-Jan-16 11:33N 33°44' W 118°17'0 0.0
2015-Jan-16 05:33N 33°44' W 118°17'0 0.0
2015-Jan-16 04:33N 33°44' W 118°17'0 0.0
2015-Jan-16 03:34N 33°44' W 118°17'1 0.6
2015-Jan-16 02:33N 33°44' W 118°16'1 0.1
2015-Jan-15 21:13N 33°44' W 118°17'0 0.0
2015-Jan-15 17:31N 33°44' W 118°17'0 0.0
2015-Jan-15 16:30N 33°44' W 118°17'0 0.0
2015-Jan-15 15:33N 33°44' W 118°17'0 0.0
2015-Jan-15 14:34N 33°44' W 118°17'0 0.0
2015-Jan-15 13:33N 33°44' W 118°17'0 0.0
2015-Jan-15 12:33N 33°44' W 118°17'0 0.0
2015-Jan-15 11:33N 33°44' W 118°17'0 0.0
2015-Jan-15 10:33N 33°44' W 118°17'0 0.0
2015-Jan-15 09:33N 33°44' W 118°17'1 1.0
2015-Jan-15 08:33N 33°45' W 118°16'2 1.3
2015-Jan-15 07:20N 33°44' W 118°16'2 2.0
2015-Jan-15 06:18N 33°44' W 118°14'2 0.7
2015-Jan-15 02:30N 33°44' W 118°17'  
Track history (hours):
 
Tides and Currents Weather Stations Pressure Air Temp Water Temp Dewpoint Dewpoint Depression Visibility Wind Speed Wind Dir Waves Ship Positions

Admiral

Owner: CROWLEY MARINE SERVICES INC, SEATTLE, WA. More information available from US FCC via Universal Licensing System and Coast Guard Vessel Documentation Center.

Last reported at 2015-Jan-25 02:18 UTC. Time now 2015-Jan-26 00:24 UTC.
Position N 33°44' W 118°13'.

; draft 5.3 m.

Type: Tug. MMSI: 366755020.

Date/timePositionNaut miles runAvg speedWind from/ knotsBaromVisibWave heightAir tempDewpointWater temp
2015-Jan-25 02:18N 33°44' W 118°13'2 2.9
2015-Jan-25 01:33N 33°46' W 118°14'1 1.1
2015-Jan-25 00:29N 33°45' W 118°13'2 1.9
2015-Jan-24 23:14N 33°45' W 118°16'0 0.2
2015-Jan-24 22:15N 33°45' W 118°16'0 0.0
2015-Jan-24 13:25N 33°46' W 118°16'1 0.3
2015-Jan-24 09:14N 33°44' W 118°17'0 0.0
2015-Jan-24 08:26N 33°44' W 118°17'0 0.0
2015-Jan-24 07:33N 33°44' W 118°17'0 0.0
2015-Jan-24 06:34N 33°44' W 118°17'3 3.5
2015-Jan-24 05:33N 33°45' W 118°13'2 1.6
2015-Jan-24 04:24N 33°43' W 118°11'3 2.9
2015-Jan-24 03:33N 33°41' W 118°11'3 3.3
2015-Jan-24 02:34N 33°44' W 118°12'1 0.6
2015-Jan-24 01:26N 33°45' W 118°12'1 0.9
2015-Jan-24 00:31N 33°45' W 118°13'1 0.6
2015-Jan-23 23:25N 33°46' W 118°13'3 0.5
2015-Jan-23 17:34N 33°44' W 118°17'1 0.7
2015-Jan-23 16:33N 33°44' W 118°16'0 0.0
2015-Jan-23 15:33N 33°44' W 118°16'1 0.7
2015-Jan-23 14:33N 33°44' W 118°17'0 0.0
2015-Jan-23 13:34N 33°44' W 118°17'0 0.0
2015-Jan-23 12:34N 33°44' W 118°17'0 0.0
2015-Jan-23 11:34N 33°44' W 118°17'0 0.0
2015-Jan-23 10:33N 33°44' W 118°17'2 1.8
2015-Jan-23 09:28N 33°43' W 118°15'3 2.5
2015-Jan-23 08:25N 33°44' W 118°12'3 3.7
2015-Jan-23 07:33N 33°43' W 118°16'1 1.5
2015-Jan-23 06:33N 33°44' W 118°17'0 0.0
2015-Jan-23 05:33N 33°44' W 118°17'0 0.0
2015-Jan-23 04:34N 33°44' W 118°17'0 0.1
2015-Jan-23 03:33N 33°44' W 118°17'2 1.4
2015-Jan-23 02:11N 33°46' W 118°15'1 1.2
2015-Jan-23 01:09N 33°45' W 118°16'1 2.3
2015-Jan-23 00:34N 33°44' W 118°15'1 0.9
2015-Jan-22 23:14N 33°44' W 118°17'0 0.0
2015-Jan-22 21:33N 33°44' W 118°17'3 2.7
2015-Jan-22 20:34N 33°42' W 118°16'8 7.9
2015-Jan-22 19:34N 33°44' W 118°25'1010.1
2015-Jan-22 18:31N 33°54' W 118°27'0 0.3
2015-Jan-22 17:34N 33°54' W 118°27'0 0.3
2015-Jan-22 16:33N 33°54' W 118°27'1 0.8
2015-Jan-22 15:33N 33°53' W 118°28'0 0.0
2015-Jan-22 14:33N 33°53' W 118°28'6 6.3
2015-Jan-22 13:33N 33°47' W 118°28'10 8.0
2015-Jan-22 12:15N 33°41' W 118°18'4 5.2
2015-Jan-22 11:33N 33°44' W 118°17'0 0.0
2015-Jan-22 10:34N 33°44' W 118°17'0 0.0
2015-Jan-22 09:33N 33°44' W 118°17'4 3.9
2015-Jan-22 08:33N 33°44' W 118°12'3 3.3
2015-Jan-22 07:33N 33°43' W 118°16'1 1.3
2015-Jan-22 06:33N 33°44' W 118°17'0 0.0
2015-Jan-22 05:34N 33°44' W 118°17'0 0.0
2015-Jan-22 04:33N 33°44' W 118°17'0 0.0
2015-Jan-22 03:33N 33°44' W 118°17'2 2.1
2015-Jan-22 02:33N 33°46' W 118°15'3 2.6
2015-Jan-22 01:22N 33°43' W 118°16'0 0.2
2015-Jan-22 00:09N 33°43' W 118°16'3 4.5
2015-Jan-21 23:33N 33°46' W 118°16'0 0.3
2015-Jan-21 22:50N 33°45' W 118°16'3 2.0
2015-Jan-21 21:33N 33°43' W 118°16'2 0.6
2015-Jan-21 18:33N 33°44' W 118°17'3 0.2
2015-Jan-20 22:27N 33°45' W 118°13'0 0.0
2015-Jan-20 21:32N 33°45' W 118°13'2 1.9
2015-Jan-20 20:34N 33°44' W 118°12'4 1.4
2015-Jan-20 17:34N 33°44' W 118°17'0 0.0
2015-Jan-20 14:25N 33°44' W 118°17'0 0.0
2015-Jan-20 13:17N 33°44' W 118°17'0 0.0
2015-Jan-20 11:08N 33°44' W 118°17'0 0.0
2015-Jan-20 10:15N 33°44' W 118°17'0 0.0
2015-Jan-20 08:28N 33°44' W 118°17'0 0.0
2015-Jan-20 07:28N 33°44' W 118°17'2 1.2
2015-Jan-20 05:31N 33°43' W 118°14'3 3.6
2015-Jan-20 04:33N 33°46' W 118°13'1 0.7
2015-Jan-20 03:33N 33°46' W 118°13'5 4.6
2015-Jan-20 02:30N 33°42' W 118°09'6 6.3
2015-Jan-20 01:33N 33°43' W 118°16'2 1.5
2015-Jan-20 00:33N 33°44' W 118°17'0 0.0
2015-Jan-19 23:26N 33°44' W 118°17'0 0.3
2015-Jan-19 22:34N 33°44' W 118°17'1 1.3
2015-Jan-19 21:34N 33°45' W 118°16'1 1.0
2015-Jan-19 20:33N 33°44' W 118°17'0 0.0
2015-Jan-19 19:26N 33°44' W 118°17'0 0.0
2015-Jan-19 18:10N 33°44' W 118°17'0 0.0
2015-Jan-19 17:29N 33°44' W 118°17'0 0.0
2015-Jan-19 16:33N 33°44' W 118°17'0 0.0
2015-Jan-19 15:33N 33°44' W 118°17'0 0.0
2015-Jan-19 14:34N 33°44' W 118°17'0 0.0
2015-Jan-19 13:33N 33°44' W 118°17'0 0.0
2015-Jan-19 12:33N 33°44' W 118°17'0 0.0
2015-Jan-19 11:33N 33°44' W 118°17'0 0.2
2015-Jan-19 10:33N 33°45' W 118°17'1 0.9
2015-Jan-19 09:33N 33°45' W 118°16'2 2.2
2015-Jan-19 08:34N 33°43' W 118°16'2 1.7
2015-Jan-19 07:33N 33°44' W 118°17'0 0.0
2015-Jan-19 06:33N 33°44' W 118°17'0 0.0
2015-Jan-19 05:34N 33°44' W 118°17'0 0.0
2015-Jan-19 04:28N 33°44' W 118°17'0 0.3
2015-Jan-19 03:33N 33°45' W 118°17'1 0.6
2015-Jan-19 02:34N 33°45' W 118°16'0 0.3
2015-Jan-19 01:33N 33°45' W 118°17'0 0.5
2015-Jan-19 00:34N 33°45' W 118°16'1 0.6
2015-Jan-18 23:33N 33°44' W 118°17'0 0.0
2015-Jan-18 22:33N 33°44' W 118°17'0 0.0
2015-Jan-18 21:33N 33°44' W 118°17'0 0.0
2015-Jan-18 20:33N 33°44' W 118°17'0 0.0
2015-Jan-18 19:33N 33°44' W 118°17'0 0.0
2015-Jan-18 18:34N 33°44' W 118°17'0 0.0
2015-Jan-18 17:21N 33°44' W 118°17'0 0.0
2015-Jan-18 16:32N 33°44' W 118°17'0 0.0
2015-Jan-18 15:26N 33°44' W 118°17'0 0.0
2015-Jan-18 14:26N 33°44' W 118°17'3 3.4
2015-Jan-18 13:33N 33°46' W 118°14'1 1.4
2015-Jan-18 12:33N 33°45' W 118°13'0 0.2
2015-Jan-18 11:33N 33°45' W 118°13'0 0.3
2015-Jan-18 10:33N 33°45' W 118°13'1 1.0
2015-Jan-18 09:34N 33°46' W 118°14'0 0.0
2015-Jan-18 08:33N 33°46' W 118°14'3 3.3
2015-Jan-18 07:33N 33°44' W 118°16'1 0.7
2015-Jan-18 06:34N 33°44' W 118°17'0 0.0
2015-Jan-18 05:34N 33°44' W 118°17'0 0.0
2015-Jan-18 04:34N 33°44' W 118°17'1 1.2
2015-Jan-18 03:33N 33°43' W 118°16'1 0.8
2015-Jan-18 02:33N 33°44' W 118°15'1 0.3
2015-Jan-17 22:29N 33°44' W 118°17'3 3.3
2015-Jan-17 21:32N 33°45' W 118°13'1 1.3
2015-Jan-17 20:32N 33°44' W 118°12'4 4.2
2015-Jan-17 19:34N 33°40' W 118°10'3 3.0
2015-Jan-17 18:33N 33°42' W 118°14'3 2.6
2015-Jan-17 17:33N 33°44' W 118°12'1 1.4
2015-Jan-17 16:31N 33°45' W 118°13'3 1.6
2015-Jan-17 14:32N 33°44' W 118°17'1 1.2
2015-Jan-17 13:33N 33°46' W 118°17'3 3.1
2015-Jan-17 12:33N 33°43' W 118°15'2 2.2
2015-Jan-17 11:34N 33°44' W 118°17'0 0.0
2015-Jan-17 10:34N 33°44' W 118°17'0 0.0
2015-Jan-17 09:34N 33°44' W 118°17'0 0.0
2015-Jan-17 08:34N 33°44' W 118°17'0 0.0
2015-Jan-17 07:34N 33°44' W 118°17'0 0.0
2015-Jan-17 06:34N 33°44' W 118°17'0 0.0
2015-Jan-17 05:33N 33°44' W 118°17'1 0.9
2015-Jan-17 04:33N 33°43' W 118°17'3 3.4
2015-Jan-17 03:34N 33°45' W 118°13'1 0.7
2015-Jan-17 02:34N 33°45' W 118°13'3 3.0
2015-Jan-17 01:34N 33°46' W 118°16'1 1.3
2015-Jan-17 00:34N 33°44' W 118°17'0 0.0
2015-Jan-16 23:33N 33°44' W 118°17'0 0.0
2015-Jan-16 22:33N 33°44' W 118°17'0 0.0
2015-Jan-16 21:09N 33°44' W 118°17'0 0.0
2015-Jan-16 20:28N 33°44' W 118°17'1 1.2
2015-Jan-16 19:34N 33°43' W 118°16'3 3.3
2015-Jan-16 18:33N 33°46' W 118°13'0 0.1
2015-Jan-16 17:33N 33°46' W 118°13'3 2.8
2015-Jan-16 16:29N 33°44' W 118°10'5 5.2
2015-Jan-16 15:34N 33°43' W 118°16'2 1.5
2015-Jan-16 14:34N 33°44' W 118°17'0 0.0
2015-Jan-16 13:33N 33°44' W 118°17'0 0.0
2015-Jan-16 12:33N 33°44' W 118°17'0 0.0
2015-Jan-16 11:33N 33°44' W 118°17'0 0.0
2015-Jan-16 05:33N 33°44' W 118°17'0 0.0
2015-Jan-16 04:33N 33°44' W 118°17'0 0.0
2015-Jan-16 03:34N 33°44' W 118°17'1 0.6
2015-Jan-16 02:33N 33°44' W 118°16'1 0.1
2015-Jan-15 21:13N 33°44' W 118°17'0 0.0
2015-Jan-15 17:31N 33°44' W 118°17'0 0.0
2015-Jan-15 16:30N 33°44' W 118°17'0 0.0
2015-Jan-15 15:33N 33°44' W 118°17'0 0.0
2015-Jan-15 14:34N 33°44' W 118°17'0 0.0
2015-Jan-15 13:33N 33°44' W 118°17'0 0.0
2015-Jan-15 12:33N 33°44' W 118°17'0 0.0
2015-Jan-15 11:33N 33°44' W 118°17'0 0.0
2015-Jan-15 10:33N 33°44' W 118°17'0 0.0
2015-Jan-15 09:33N 33°44' W 118°17'1 1.0
2015-Jan-15 08:33N 33°45' W 118°16'2 1.3
2015-Jan-15 07:20N 33°44' W 118°16'2 2.0
2015-Jan-15 06:18N 33°44' W 118°14'2 0.7
2015-Jan-15 02:30N 33°44' W 118°17'  

Dump ship's entire track history